sensor_id;sensor_type;location;lat;lon;timestamp;P1;durP1;ratioP1;P2;durP2;ratioP2
17496;SDS011;62150;43.582;1.456;2023-05-14T05:31:53;4.60;;;2.50;;
17496;SDS011;62150;43.582;1.456;2023-05-14T05:34:21;3.63;;;2.50;;
17496;SDS011;62150;43.582;1.456;2023-05-14T05:36:48;4.20;;;2.60;;
17496;SDS011;62150;43.582;1.456;2023-05-14T05:39:16;4.63;;;2.73;;
17496;SDS011;62150;43.582;1.456;2023-05-14T05:41:43;4.50;;;2.67;;
17496;SDS011;62150;43.582;1.456;2023-05-14T05:44:11;3.97;;;2.50;;
17496;SDS011;62150;43.582;1.456;2023-05-14T05:46:38;4.57;;;2.70;;
17496;SDS011;62150;43.582;1.456;2023-05-14T05:49:07;4.83;;;2.67;;
17496;SDS011;62150;43.582;1.456;2023-05-14T05:51:34;4.53;;;2.50;;
17496;SDS011;62150;43.582;1.456;2023-05-14T05:54:05;4.30;;;2.60;;
17496;SDS011;62150;43.582;1.456;2023-05-14T05:56:32;4.13;;;2.60;;
17496;SDS011;62150;43.582;1.456;2023-05-14T05:59:00;4.30;;;2.47;;
17496;SDS011;62150;43.582;1.456;2023-05-14T06:01:28;4.73;;;2.80;;
17496;SDS011;62150;43.582;1.456;2023-05-14T06:03:56;4.00;;;2.43;;
17496;SDS011;62150;43.582;1.456;2023-05-14T06:06:28;5.33;;;2.80;;
17496;SDS011;62150;43.582;1.456;2023-05-14T06:08:56;4.97;;;2.80;;
17496;SDS011;62150;43.582;1.456;2023-05-14T06:11:25;4.90;;;2.80;;
17496;SDS011;62150;43.582;1.456;2023-05-14T06:13:53;6.07;;;3.10;;
17496;SDS011;62150;43.582;1.456;2023-05-14T06:16:21;5.27;;;2.87;;
17496;SDS011;62150;43.582;1.456;2023-05-14T06:18:48;5.47;;;3.00;;
17496;SDS011;62150;43.582;1.456;2023-05-14T06:21:16;5.73;;;2.80;;
17496;SDS011;62150;43.582;1.456;2023-05-14T06:23:45;5.97;;;3.20;;
17496;SDS011;62150;43.582;1.456;2023-05-14T06:26:13;6.80;;;3.40;;
17496;SDS011;62150;43.582;1.456;2023-05-14T06:28:40;6.73;;;3.10;;
17496;SDS011;62150;43.582;1.456;2023-05-14T06:31:08;6.37;;;3.30;;
17496;SDS011;62150;43.582;1.456;2023-05-14T06:33:35;5.70;;;2.93;;
17496;SDS011;62150;43.582;1.456;2023-05-14T06:36:03;6.73;;;3.37;;
17496;SDS011;62150;43.582;1.456;2023-05-14T06:38:32;7.40;;;3.43;;
17496;SDS011;62150;43.582;1.456;2023-05-14T06:41:01;6.43;;;3.10;;
17496;SDS011;62150;43.582;1.456;2023-05-14T06:43:28;6.17;;;3.20;;
17496;SDS011;62150;43.582;1.456;2023-05-14T06:45:57;6.07;;;2.97;;
17496;SDS011;62150;43.582;1.456;2023-05-14T06:48:25;6.70;;;3.43;;
17496;SDS011;62150;43.582;1.456;2023-05-14T06:50:53;6.27;;;3.30;;
17496;SDS011;62150;43.582;1.456;2023-05-14T06:53:21;7.40;;;3.57;;
17496;SDS011;62150;43.582;1.456;2023-05-14T06:55:48;6.67;;;3.40;;
17496;SDS011;62150;43.582;1.456;2023-05-14T06:58:17;7.73;;;3.57;;
17496;SDS011;62150;43.582;1.456;2023-05-14T07:00:45;8.30;;;3.70;;
17496;SDS011;62150;43.582;1.456;2023-05-14T07:03:13;7.97;;;3.63;;
17496;SDS011;62150;43.582;1.456;2023-05-14T07:05:40;7.77;;;3.70;;
17496;SDS011;62150;43.582;1.456;2023-05-14T07:08:11;6.70;;;3.43;;
17496;SDS011;62150;43.582;1.456;2023-05-14T07:10:39;7.67;;;3.50;;
17496;SDS011;62150;43.582;1.456;2023-05-14T07:13:07;6.90;;;3.33;;
17496;SDS011;62150;43.582;1.456;2023-05-14T07:15:36;7.77;;;3.53;;
17496;SDS011;62150;43.582;1.456;2023-05-14T07:18:03;8.33;;;3.70;;
17496;SDS011;62150;43.582;1.456;2023-05-14T07:20:31;9.43;;;4.00;;
17496;SDS011;62150;43.582;1.456;2023-05-14T07:22:58;8.37;;;3.70;;
17496;SDS011;62150;43.582;1.456;2023-05-14T07:25:26;8.73;;;3.97;;
17496;SDS011;62150;43.582;1.456;2023-05-14T07:27:53;9.20;;;4.13;;
17496;SDS011;62150;43.582;1.456;2023-05-14T07:30:21;8.47;;;4.27;;
17496;SDS011;62150;43.582;1.456;2023-05-14T07:32:50;8.97;;;4.13;;
17496;SDS011;62150;43.582;1.456;2023-05-14T07:35:17;7.20;;;3.70;;
17496;SDS011;62150;43.582;1.456;2023-05-14T07:37:45;8.33;;;4.23;;
17496;SDS011;62150;43.582;1.456;2023-05-14T07:40:13;7.77;;;3.70;;
17496;SDS011;62150;43.582;1.456;2023-05-14T07:42:40;7.30;;;3.60;;
17496;SDS011;62150;43.582;1.456;2023-05-14T07:45:08;7.53;;;3.83;;
17496;SDS011;62150;43.582;1.456;2023-05-14T07:47:36;7.90;;;3.80;;
17496;SDS011;62150;43.582;1.456;2023-05-14T07:50:06;8.10;;;4.00;;
17496;SDS011;62150;43.582;1.456;2023-05-14T07:52:37;9.10;;;4.13;;
17496;SDS011;62150;43.582;1.456;2023-05-14T07:55:05;7.23;;;3.90;;
17496;SDS011;62150;43.582;1.456;2023-05-14T07:57:34;8.57;;;4.10;;
17496;SDS011;62150;43.582;1.456;2023-05-14T08:00:05;8.00;;;4.00;;
17496;SDS011;62150;43.582;1.456;2023-05-14T08:02:34;8.93;;;3.80;;
17496;SDS011;62150;43.582;1.456;2023-05-14T08:05:01;8.53;;;3.90;;
17496;SDS011;62150;43.582;1.456;2023-05-14T08:07:31;7.97;;;3.93;;
17496;SDS011;62150;43.582;1.456;2023-05-14T08:09:59;8.13;;;3.93;;
17496;SDS011;62150;43.582;1.456;2023-05-14T08:12:33;9.17;;;4.30;;
17496;SDS011;62150;43.582;1.456;2023-05-14T08:15:01;9.03;;;4.30;;
17496;SDS011;62150;43.582;1.456;2023-05-14T08:17:29;7.80;;;3.83;;
17496;SDS011;62150;43.582;1.456;2023-05-14T08:19:56;8.47;;;3.97;;
17496;SDS011;62150;43.582;1.456;2023-05-14T08:22:24;9.60;;;4.37;;
17496;SDS011;62150;43.582;1.456;2023-05-14T08:24:54;7.57;;;3.87;;
17496;SDS011;62150;43.582;1.456;2023-05-14T08:27:22;8.63;;;4.40;;
17496;SDS011;62150;43.582;1.456;2023-05-14T08:29:50;9.20;;;4.60;;
17496;SDS011;62150;43.582;1.456;2023-05-14T08:32:17;7.70;;;3.83;;
17496;SDS011;62150;43.582;1.456;2023-05-14T08:34:45;9.30;;;4.47;;
17496;SDS011;62150;43.582;1.456;2023-05-14T08:37:12;9.80;;;4.50;;
17496;SDS011;62150;43.582;1.456;2023-05-14T08:39:40;8.33;;;4.30;;
17496;SDS011;62150;43.582;1.456;2023-05-14T08:42:09;8.93;;;4.23;;
17496;SDS011;62150;43.582;1.456;2023-05-14T08:44:41;9.43;;;4.70;;
17496;SDS011;62150;43.582;1.456;2023-05-14T08:47:12;8.53;;;4.40;;
17496;SDS011;62150;43.582;1.456;2023-05-14T08:49:45;8.47;;;4.30;;
17496;SDS011;62150;43.582;1.456;2023-05-14T08:52:15;9.80;;;4.70;;
17496;SDS011;62150;43.582;1.456;2023-05-14T08:54:45;7.80;;;4.10;;
17496;SDS011;62150;43.582;1.456;2023-05-14T08:57:17;9.10;;;4.40;;
17496;SDS011;62150;43.582;1.456;2023-05-14T08:59:45;9.70;;;4.30;;
17496;SDS011;62150;43.582;1.456;2023-05-14T09:02:13;8.87;;;4.60;;
17496;SDS011;62150;43.582;1.456;2023-05-14T09:04:41;10.33;;;5.07;;
17496;SDS011;62150;43.582;1.456;2023-05-14T09:07:10;9.37;;;4.90;;
17496;SDS011;62150;43.582;1.456;2023-05-14T09:09:37;9.33;;;4.80;;
17496;SDS011;62150;43.582;1.456;2023-05-14T09:12:06;10.57;;;5.23;;
17496;SDS011;62150;43.582;1.456;2023-05-14T09:14:35;9.67;;;4.47;;
17496;SDS011;62150;43.582;1.456;2023-05-14T09:17:03;9.20;;;4.70;;
17496;SDS011;62150;43.582;1.456;2023-05-14T09:19:31;9.17;;;4.60;;
17496;SDS011;62150;43.582;1.456;2023-05-14T09:21:58;9.90;;;5.10;;
17496;SDS011;62150;43.582;1.456;2023-05-14T09:24:26;9.93;;;5.00;;
17496;SDS011;62150;43.582;1.456;2023-05-14T09:26:55;9.30;;;5.03;;
17496;SDS011;62150;43.582;1.456;2023-05-14T09:29:23;8.93;;;4.47;;
17496;SDS011;62150;43.582;1.456;2023-05-14T09:31:52;9.87;;;4.63;;
17496;SDS011;62150;43.582;1.456;2023-05-14T09:34:24;9.90;;;4.60;;
17496;SDS011;62150;43.582;1.456;2023-05-14T09:36:53;9.90;;;4.70;;
17496;SDS011;62150;43.582;1.456;2023-05-14T09:39:23;9.77;;;4.83;;
17496;SDS011;62150;43.582;1.456;2023-05-14T09:41:51;10.30;;;4.73;;
17496;SDS011;62150;43.582;1.456;2023-05-14T09:44:20;9.40;;;4.80;;
17496;SDS011;62150;43.582;1.456;2023-05-14T09:46:48;9.25;;;4.93;;
17496;SDS011;62150;43.582;1.456;2023-05-14T09:49:17;9.15;;;4.30;;
17496;SDS011;62150;43.582;1.456;2023-05-14T09:51:45;9.90;;;5.10;;
17496;SDS011;62150;43.582;1.456;2023-05-14T09:54:14;9.67;;;5.03;;
17496;SDS011;62150;43.582;1.456;2023-05-14T09:56:42;9.63;;;4.67;;
17496;SDS011;62150;43.582;1.456;2023-05-14T09:59:09;9.07;;;4.63;;
17496;SDS011;62150;43.582;1.456;2023-05-14T10:01:38;8.80;;;4.30;;
17496;SDS011;62150;43.582;1.456;2023-05-14T10:04:08;8.93;;;4.20;;
17496;SDS011;62150;43.582;1.456;2023-05-14T10:06:39;9.43;;;4.63;;
17496;SDS011;62150;43.582;1.456;2023-05-14T10:09:09;8.63;;;4.47;;
17496;SDS011;62150;43.582;1.456;2023-05-14T10:11:41;9.13;;;4.40;;
17496;SDS011;62150;43.582;1.456;2023-05-14T10:14:12;9.03;;;4.60;;
17496;SDS011;62150;43.582;1.456;2023-05-14T10:16:46;8.40;;;4.37;;
17496;SDS011;62150;43.582;1.456;2023-05-14T10:19:19;9.27;;;4.30;;
17496;SDS011;62150;43.582;1.456;2023-05-14T10:21:52;8.93;;;4.45;;
17496;SDS011;62150;43.582;1.456;2023-05-14T10:24:21;8.60;;;4.47;;
17496;SDS011;62150;43.582;1.456;2023-05-14T10:26:49;8.68;;;4.35;;
17496;SDS011;62150;43.582;1.456;2023-05-14T10:29:17;7.87;;;4.20;;
17496;SDS011;62150;43.582;1.456;2023-05-14T10:31:45;7.72;;;4.03;;
17496;SDS011;62150;43.582;1.456;2023-05-14T10:34:30;8.52;;;4.22;;
17496;SDS011;62150;43.582;1.456;2023-05-14T10:37:07;8.38;;;4.00;;
17496;SDS011;62150;43.582;1.456;2023-05-14T10:39:39;9.82;;;4.43;;
17496;SDS011;62150;43.582;1.456;2023-05-14T10:42:11;8.40;;;4.37;;
17496;SDS011;62150;43.582;1.456;2023-05-14T10:44:44;8.60;;;4.18;;
17496;SDS011;62150;43.582;1.456;2023-05-14T10:47:17;7.88;;;3.92;;
17496;SDS011;62150;43.582;1.456;2023-05-14T10:49:45;9.02;;;4.18;;
17496;SDS011;62150;43.582;1.456;2023-05-14T10:52:29;7.95;;;3.97;;
17496;SDS011;62150;43.582;1.456;2023-05-14T10:55:02;8.07;;;3.85;;
17496;SDS011;62150;43.582;1.456;2023-05-14T10:57:59;7.35;;;4.03;;
17496;SDS011;62150;43.582;1.456;2023-05-14T11:00:32;7.00;;;3.60;;
17496;SDS011;62150;43.582;1.456;2023-05-14T11:03:02;7.80;;;4.00;;
17496;SDS011;62150;43.582;1.456;2023-05-14T11:05:31;7.72;;;4.03;;
17496;SDS011;62150;43.582;1.456;2023-05-14T11:08:03;7.57;;;4.15;;
17496;SDS011;62150;43.582;1.456;2023-05-14T11:10:33;7.47;;;4.10;;
17496;SDS011;62150;43.582;1.456;2023-05-14T11:13:03;7.82;;;4.10;;
17496;SDS011;62150;43.582;1.456;2023-05-14T11:15:31;7.43;;;3.90;;
17496;SDS011;62150;43.582;1.456;2023-05-14T11:17:58;8.05;;;4.10;;
17496;SDS011;62150;43.582;1.456;2023-05-14T11:20:26;8.32;;;3.80;;
17496;SDS011;62150;43.582;1.456;2023-05-14T11:22:53;8.02;;;4.03;;
17496;SDS011;62150;43.582;1.456;2023-05-14T11:25:22;6.65;;;3.67;;
17496;SDS011;62150;43.582;1.456;2023-05-14T11:27:50;8.18;;;3.70;;
17496;SDS011;62150;43.582;1.456;2023-05-14T11:30:20;10.35;;;4.13;;
17496;SDS011;62150;43.582;1.456;2023-05-14T11:32:48;9.05;;;4.10;;
17496;SDS011;62150;43.582;1.456;2023-05-14T11:35:16;8.38;;;4.25;;
17496;SDS011;62150;43.582;1.456;2023-05-14T11:37:48;7.63;;;3.90;;
17496;SDS011;62150;43.582;1.456;2023-05-14T11:40:17;7.18;;;3.70;;
17496;SDS011;62150;43.582;1.456;2023-05-14T11:42:48;7.35;;;4.00;;
17496;SDS011;62150;43.582;1.456;2023-05-14T11:45:23;9.10;;;4.65;;
17496;SDS011;62150;43.582;1.456;2023-05-14T11:47:51;8.07;;;3.80;;
17496;SDS011;62150;43.582;1.456;2023-05-14T11:50:19;7.95;;;4.00;;
17496;SDS011;62150;43.582;1.456;2023-05-14T11:52:47;7.28;;;3.83;;
17496;SDS011;62150;43.582;1.456;2023-05-14T11:55:15;7.18;;;3.65;;
17496;SDS011;62150;43.582;1.456;2023-05-14T11:57:44;8.27;;;3.97;;
17496;SDS011;62150;43.582;1.456;2023-05-14T12:00:14;6.32;;;3.47;;
17496;SDS011;62150;43.582;1.456;2023-05-14T12:02:46;6.35;;;3.60;;
17496;SDS011;62150;43.582;1.456;2023-05-14T12:05:17;7.13;;;3.58;;
17496;SDS011;62150;43.582;1.456;2023-05-14T12:07:46;6.32;;;3.70;;
17496;SDS011;62150;43.582;1.456;2023-05-14T12:10:13;7.00;;;4.15;;
17496;SDS011;62150;43.582;1.456;2023-05-14T12:12:44;7.93;;;3.90;;
17496;SDS011;62150;43.582;1.456;2023-05-14T12:15:14;6.28;;;3.40;;
17496;SDS011;62150;43.582;1.456;2023-05-14T12:17:42;5.85;;;3.50;;
17496;SDS011;62150;43.582;1.456;2023-05-14T12:20:16;5.80;;;3.70;;
17496;SDS011;62150;43.582;1.456;2023-05-14T12:22:44;7.78;;;3.88;;
17496;SDS011;62150;43.582;1.456;2023-05-14T12:25:11;8.50;;;4.07;;
17496;SDS011;62150;43.582;1.456;2023-05-14T12:27:39;7.25;;;3.95;;
17496;SDS011;62150;43.582;1.456;2023-05-14T12:30:11;6.15;;;3.92;;
17496;SDS011;62150;43.582;1.456;2023-05-14T12:32:39;6.70;;;3.75;;
17496;SDS011;62150;43.582;1.456;2023-05-14T12:35:07;8.38;;;4.07;;
17496;SDS011;62150;43.582;1.456;2023-05-14T12:37:35;8.05;;;4.00;;
17496;SDS011;62150;43.582;1.456;2023-05-14T12:40:06;5.95;;;3.67;;
17496;SDS011;62150;43.582;1.456;2023-05-14T12:42:34;6.50;;;3.60;;
17496;SDS011;62150;43.582;1.456;2023-05-14T12:45:03;6.60;;;3.83;;
17496;SDS011;62150;43.582;1.456;2023-05-14T12:47:33;7.22;;;3.90;;
17496;SDS011;62150;43.582;1.456;2023-05-14T12:50:01;6.45;;;3.58;;
17496;SDS011;62150;43.582;1.456;2023-05-14T12:52:29;7.47;;;4.03;;
17496;SDS011;62150;43.582;1.456;2023-05-14T12:54:56;6.70;;;3.70;;
17496;SDS011;62150;43.582;1.456;2023-05-14T12:57:25;6.70;;;3.58;;
17496;SDS011;62150;43.582;1.456;2023-05-14T12:59:54;7.60;;;3.90;;
17496;SDS011;62150;43.582;1.456;2023-05-14T13:02:22;7.60;;;3.78;;
17496;SDS011;62150;43.582;1.456;2023-05-14T13:04:51;6.93;;;3.83;;
17496;SDS011;62150;43.582;1.456;2023-05-14T13:07:18;7.53;;;4.10;;
17496;SDS011;62150;43.582;1.456;2023-05-14T13:09:46;7.97;;;3.75;;
17496;SDS011;62150;43.582;1.456;2023-05-14T13:12:13;7.88;;;4.05;;
17496;SDS011;62150;43.582;1.456;2023-05-14T13:14:41;7.78;;;4.10;;
17496;SDS011;62150;43.582;1.456;2023-05-14T13:17:08;5.25;;;3.47;;
17496;SDS011;62150;43.582;1.456;2023-05-14T13:19:36;7.53;;;3.95;;
17496;SDS011;62150;43.582;1.456;2023-05-14T13:22:05;7.72;;;4.00;;
17496;SDS011;62150;43.582;1.456;2023-05-14T13:24:32;6.80;;;3.90;;
17496;SDS011;62150;43.582;1.456;2023-05-14T13:27:00;7.25;;;4.10;;
17496;SDS011;62150;43.582;1.456;2023-05-14T13:29:27;7.32;;;3.65;;
17496;SDS011;62150;43.582;1.456;2023-05-14T13:31:55;6.97;;;3.90;;
17496;SDS011;62150;43.582;1.456;2023-05-14T13:34:23;7.45;;;4.10;;
17496;SDS011;62150;43.582;1.456;2023-05-14T13:36:50;6.35;;;3.78;;
17496;SDS011;62150;43.582;1.456;2023-05-14T13:39:19;7.10;;;3.92;;
17496;SDS011;62150;43.582;1.456;2023-05-14T13:41:51;6.78;;;3.88;;
17496;SDS011;62150;43.582;1.456;2023-05-14T13:44:20;8.45;;;4.10;;
17496;SDS011;62150;43.582;1.456;2023-05-14T13:46:48;6.47;;;3.75;;
17496;SDS011;62150;43.582;1.456;2023-05-14T13:49:15;7.28;;;4.07;;
17496;SDS011;62150;43.582;1.456;2023-05-14T13:51:43;7.63;;;3.92;;
17496;SDS011;62150;43.582;1.456;2023-05-14T13:54:11;6.90;;;3.80;;
17496;SDS011;62150;43.582;1.456;2023-05-14T13:56:39;6.00;;;3.80;;
17496;SDS011;62150;43.582;1.456;2023-05-14T13:59:07;7.18;;;3.92;;
17496;SDS011;62150;43.582;1.456;2023-05-14T14:01:35;7.60;;;3.92;;
17496;SDS011;62150;43.582;1.456;2023-05-14T14:04:02;7.03;;;3.80;;
17496;SDS011;62150;43.582;1.456;2023-05-14T14:06:30;6.97;;;3.80;;
17496;SDS011;62150;43.582;1.456;2023-05-14T14:08:58;6.63;;;4.00;;
17496;SDS011;62150;43.582;1.456;2023-05-14T14:11:26;7.32;;;3.90;;
17496;SDS011;62150;43.582;1.456;2023-05-14T14:13:55;6.97;;;3.92;;
17496;SDS011;62150;43.582;1.456;2023-05-14T14:16:22;6.78;;;4.03;;
17496;SDS011;62150;43.582;1.456;2023-05-14T14:18:50;7.20;;;4.05;;
17496;SDS011;62150;43.582;1.456;2023-05-14T14:21:17;7.15;;;3.78;;
17496;SDS011;62150;43.582;1.456;2023-05-14T14:23:45;7.35;;;4.07;;
17496;SDS011;62150;43.582;1.456;2023-05-14T14:26:12;6.38;;;3.80;;
17496;SDS011;62150;43.582;1.456;2023-05-14T14:28:40;7.00;;;3.88;;
17496;SDS011;62150;43.582;1.456;2023-05-14T14:31:09;6.45;;;3.80;;
17496;SDS011;62150;43.582;1.456;2023-05-14T14:33:37;7.13;;;3.95;;
17496;SDS011;62150;43.582;1.456;2023-05-14T14:36:05;8.50;;;4.07;;
17496;SDS011;62150;43.582;1.456;2023-05-14T14:38:32;6.82;;;3.95;;
17496;SDS011;62150;43.582;1.456;2023-05-14T14:41:00;7.35;;;4.13;;
17496;SDS011;62150;43.582;1.456;2023-05-14T14:43:28;6.88;;;4.00;;
17496;SDS011;62150;43.582;1.456;2023-05-14T14:45:55;6.47;;;4.00;;
17496;SDS011;62150;43.582;1.456;2023-05-14T14:48:28;7.25;;;3.95;;
17496;SDS011;62150;43.582;1.456;2023-05-14T14:50:58;7.03;;;3.80;;
17496;SDS011;62150;43.582;1.456;2023-05-14T14:53:26;6.13;;;3.72;;
17496;SDS011;62150;43.582;1.456;2023-05-14T14:55:53;7.80;;;4.00;;
17496;SDS011;62150;43.582;1.456;2023-05-14T14:58:21;9.15;;;4.43;;
17496;SDS011;62150;43.582;1.456;2023-05-14T15:00:51;8.15;;;4.20;;
17496;SDS011;62150;43.582;1.456;2023-05-14T15:03:20;6.93;;;3.90;;
17496;SDS011;62150;43.582;1.456;2023-05-14T15:05:49;7.82;;;4.20;;
17496;SDS011;62150;43.582;1.456;2023-05-14T15:08:17;7.20;;;3.97;;
17496;SDS011;62150;43.582;1.456;2023-05-14T15:10:48;7.85;;;4.20;;
17496;SDS011;62150;43.582;1.456;2023-05-14T15:13:15;6.53;;;4.03;;
17496;SDS011;62150;43.582;1.456;2023-05-14T15:15:43;7.28;;;4.22;;
17496;SDS011;62150;43.582;1.456;2023-05-14T15:18:11;8.27;;;4.30;;
17496;SDS011;62150;43.582;1.456;2023-05-14T15:20:38;7.22;;;4.03;;
17496;SDS011;62150;43.582;1.456;2023-05-14T15:23:07;8.40;;;4.40;;
17496;SDS011;62150;43.582;1.456;2023-05-14T15:25:35;7.63;;;4.30;;
17496;SDS011;62150;43.582;1.456;2023-05-14T15:28:04;9.52;;;4.72;;
17496;SDS011;62150;43.582;1.456;2023-05-14T15:30:32;9.27;;;4.68;;
17496;SDS011;62150;43.582;1.456;2023-05-14T15:33:00;9.65;;;4.63;;
17496;SDS011;62150;43.582;1.456;2023-05-14T15:35:27;7.93;;;4.57;;
17496;SDS011;62150;43.582;1.456;2023-05-14T15:37:55;9.07;;;4.93;;
17496;SDS011;62150;43.582;1.456;2023-05-14T15:40:25;8.75;;;4.63;;
17496;SDS011;62150;43.582;1.456;2023-05-14T15:42:52;9.00;;;4.60;;
17496;SDS011;62150;43.582;1.456;2023-05-14T15:45:21;7.45;;;4.35;;
17496;SDS011;62150;43.582;1.456;2023-05-14T15:47:48;8.75;;;4.80;;
17496;SDS011;62150;43.582;1.456;2023-05-14T15:50:16;9.50;;;5.05;;
17496;SDS011;62150;43.582;1.456;2023-05-14T15:52:44;9.98;;;5.20;;
17496;SDS011;62150;43.582;1.456;2023-05-14T15:55:14;9.43;;;4.97;;
17496;SDS011;62150;43.582;1.456;2023-05-14T15:57:43;8.52;;;4.90;;
17496;SDS011;62150;43.582;1.456;2023-05-14T16:00:10;8.48;;;4.72;;
17496;SDS011;62150;43.582;1.456;2023-05-14T16:02:38;8.23;;;4.70;;
17496;SDS011;62150;43.582;1.456;2023-05-14T16:05:06;9.55;;;4.93;;
17496;SDS011;62150;43.582;1.456;2023-05-14T16:07:34;8.07;;;4.38;;
17496;SDS011;62150;43.582;1.456;2023-05-14T16:10:03;7.25;;;4.32;;
17496;SDS011;62150;43.582;1.456;2023-05-14T16:12:31;7.55;;;4.45;;
17496;SDS011;62150;43.582;1.456;2023-05-14T16:15:00;8.23;;;4.65;;
17496;SDS011;62150;43.582;1.456;2023-05-14T16:17:27;8.52;;;4.47;;
17496;SDS011;62150;43.582;1.456;2023-05-14T16:19:56;7.95;;;4.53;;
17496;SDS011;62150;43.582;1.456;2023-05-14T16:22:24;9.20;;;4.70;;
17496;SDS011;62150;43.582;1.456;2023-05-14T16:24:53;9.90;;;4.90;;
17496;SDS011;62150;43.582;1.456;2023-05-14T16:27:21;8.75;;;4.50;;
17496;SDS011;62150;43.582;1.456;2023-05-14T16:29:50;8.13;;;4.57;;
17496;SDS011;62150;43.582;1.456;2023-05-14T16:32:19;9.00;;;4.82;;
17496;SDS011;62150;43.582;1.456;2023-05-14T16:34:49;8.18;;;4.50;;
17496;SDS011;62150;43.582;1.456;2023-05-14T16:37:16;10.43;;;4.63;;
17496;SDS011;62150;43.582;1.456;2023-05-14T16:39:44;8.70;;;4.43;;
17496;SDS011;62150;43.582;1.456;2023-05-14T16:42:12;10.43;;;5.20;;
17496;SDS011;62150;43.582;1.456;2023-05-14T16:44:39;9.52;;;4.80;;
17496;SDS011;62150;43.582;1.456;2023-05-14T16:47:07;9.50;;;4.55;;
17496;SDS011;62150;43.582;1.456;2023-05-14T16:49:38;10.32;;;4.90;;
17496;SDS011;62150;43.582;1.456;2023-05-14T16:52:05;10.23;;;4.95;;
17496;SDS011;62150;43.582;1.456;2023-05-14T16:54:33;10.07;;;5.10;;
17496;SDS011;62150;43.582;1.456;2023-05-14T16:57:01;9.43;;;5.00;;
17496;SDS011;62150;43.582;1.456;2023-05-14T16:59:28;10.50;;;5.30;;
17496;SDS011;62150;43.582;1.456;2023-05-14T17:01:56;10.90;;;5.13;;
17496;SDS011;62150;43.582;1.456;2023-05-14T17:04:23;10.95;;;5.20;;
17496;SDS011;62150;43.582;1.456;2023-05-14T17:06:52;10.05;;;5.15;;
17496;SDS011;62150;43.582;1.456;2023-05-14T17:09:21;9.80;;;4.88;;
17496;SDS011;62150;43.582;1.456;2023-05-14T17:11:48;9.30;;;5.18;;
17496;SDS011;62150;43.582;1.456;2023-05-14T17:14:16;9.90;;;5.00;;
17496;SDS011;62150;43.582;1.456;2023-05-14T17:16:44;10.00;;;5.13;;
17496;SDS011;62150;43.582;1.456;2023-05-14T17:19:11;8.15;;;4.63;;
17496;SDS011;62150;43.582;1.456;2023-05-14T17:21:39;8.32;;;4.35;;
17496;SDS011;62150;43.582;1.456;2023-05-14T17:24:08;8.40;;;4.53;;
17496;SDS011;62150;43.582;1.456;2023-05-14T17:26:35;9.50;;;4.95;;
17496;SDS011;62150;43.582;1.456;2023-05-14T17:29:03;8.15;;;4.40;;
17496;SDS011;62150;43.582;1.456;2023-05-14T17:31:30;7.32;;;4.03;;
17496;SDS011;62150;43.582;1.456;2023-05-14T17:33:58;7.07;;;3.92;;
17496;SDS011;62150;43.582;1.456;2023-05-14T17:36:25;7.22;;;3.85;;
17496;SDS011;62150;43.582;1.456;2023-05-14T17:38:56;8.40;;;4.45;;
17496;SDS011;62150;43.582;1.456;2023-05-14T17:41:25;8.68;;;4.18;;
17496;SDS011;62150;43.582;1.456;2023-05-14T17:43:53;8.77;;;4.00;;
17496;SDS011;62150;43.582;1.456;2023-05-14T17:46:23;8.00;;;4.07;;
17496;SDS011;62150;43.582;1.456;2023-05-14T17:48:50;9.38;;;4.30;;
17496;SDS011;62150;43.582;1.456;2023-05-14T17:51:18;9.27;;;4.63;;
17496;SDS011;62150;43.582;1.456;2023-05-14T17:53:45;8.75;;;4.85;;
17496;SDS011;62150;43.582;1.456;2023-05-14T17:56:13;8.93;;;4.80;;
17496;SDS011;62150;43.582;1.456;2023-05-14T17:58:45;9.95;;;4.85;;
17496;SDS011;62150;43.582;1.456;2023-05-14T18:01:12;10.00;;;5.35;;
17496;SDS011;62150;43.582;1.456;2023-05-14T18:03:40;9.80;;;5.20;;
17496;SDS011;62150;43.582;1.456;2023-05-14T18:06:07;9.60;;;5.07;;
17496;SDS011;62150;43.582;1.456;2023-05-14T18:08:35;9.93;;;5.28;;
17496;SDS011;62150;43.582;1.456;2023-05-14T18:11:03;10.40;;;5.45;;
17496;SDS011;62150;43.582;1.456;2023-05-14T18:13:30;10.27;;;5.50;;
17496;SDS011;62150;43.582;1.456;2023-05-14T18:15:59;10.48;;;5.68;;
17496;SDS011;62150;43.582;1.456;2023-05-14T18:18:26;10.55;;;5.35;;
17496;SDS011;62150;43.582;1.456;2023-05-14T18:20:54;10.95;;;5.38;;
17496;SDS011;62150;43.582;1.456;2023-05-14T18:23:22;10.73;;;5.53;;
17496;SDS011;62150;43.582;1.456;2023-05-14T18:25:50;10.15;;;5.55;;
17496;SDS011;62150;43.582;1.456;2023-05-14T18:28:17;10.52;;;5.82;;
17496;SDS011;62150;43.582;1.456;2023-05-14T18:30:45;10.80;;;5.45;;
17496;SDS011;62150;43.582;1.456;2023-05-14T18:33:15;11.13;;;5.60;;
17496;SDS011;62150;43.582;1.456;2023-05-14T18:35:43;10.13;;;5.30;;
17496;SDS011;62150;43.582;1.456;2023-05-14T18:38:10;11.52;;;5.85;;
17496;SDS011;62150;43.582;1.456;2023-05-14T18:40:38;10.90;;;5.83;;
17496;SDS011;62150;43.582;1.456;2023-05-14T18:43:05;10.00;;;5.25;;
17496;SDS011;62150;43.582;1.456;2023-05-14T18:45:33;10.77;;;5.70;;
17496;SDS011;62150;43.582;1.456;2023-05-14T18:48:02;10.10;;;5.65;;
17496;SDS011;62150;43.582;1.456;2023-05-14T18:50:31;9.45;;;5.60;;
17496;SDS011;62150;43.582;1.456;2023-05-14T18:52:58;10.35;;;5.50;;
17496;SDS011;62150;43.582;1.456;2023-05-14T18:55:26;10.90;;;5.97;;
17496;SDS011;62150;43.582;1.456;2023-05-14T18:57:54;11.35;;;5.93;;
17496;SDS011;62150;43.582;1.456;2023-05-14T19:00:23;10.50;;;6.05;;
17496;SDS011;62150;43.582;1.456;2023-05-14T19:02:50;10.70;;;6.23;;
17496;SDS011;62150;43.582;1.456;2023-05-14T19:05:18;11.83;;;6.10;;
17496;SDS011;62150;43.582;1.456;2023-05-14T19:07:47;11.80;;;6.13;;
17496;SDS011;62150;43.582;1.456;2023-05-14T19:10:14;10.80;;;6.23;;
17496;SDS011;62150;43.582;1.456;2023-05-14T19:12:42;12.07;;;6.37;;
17496;SDS011;62150;43.582;1.456;2023-05-14T19:15:11;11.30;;;6.03;;
17496;SDS011;62150;43.582;1.456;2023-05-14T19:17:38;10.57;;;6.00;;
17496;SDS011;62150;43.582;1.456;2023-05-14T19:20:06;11.73;;;6.43;;
17496;SDS011;62150;43.582;1.456;2023-05-14T19:22:35;11.18;;;6.50;;
17496;SDS011;62150;43.582;1.456;2023-05-14T19:25:05;11.97;;;7.00;;
17496;SDS011;62150;43.582;1.456;2023-05-14T19:27:33;10.90;;;6.30;;
17496;SDS011;62150;43.582;1.456;2023-05-14T19:30:02;11.97;;;6.10;;
17496;SDS011;62150;43.582;1.456;2023-05-14T19:32:30;11.97;;;7.00;;
17496;SDS011;62150;43.582;1.456;2023-05-14T19:34:57;11.57;;;6.72;;
17496;SDS011;62150;43.582;1.456;2023-05-14T19:37:25;12.07;;;6.83;;
17496;SDS011;62150;43.582;1.456;2023-05-14T19:39:53;12.40;;;7.03;;
17496;SDS011;62150;43.582;1.456;2023-05-14T19:42:22;12.70;;;7.07;;
17496;SDS011;62150;43.582;1.456;2023-05-14T19:44:49;11.80;;;7.07;;
17496;SDS011;62150;43.582;1.456;2023-05-14T19:47:18;12.43;;;7.10;;
17496;SDS011;62150;43.582;1.456;2023-05-14T19:49:46;12.50;;;7.20;;
17496;SDS011;62150;43.582;1.456;2023-05-14T19:52:13;12.40;;;7.23;;
17496;SDS011;62150;43.582;1.456;2023-05-14T19:54:41;12.40;;;6.83;;
17496;SDS011;62150;43.582;1.456;2023-05-14T19:57:14;13.13;;;7.40;;
17496;SDS011;62150;43.582;1.456;2023-05-14T19:59:43;12.40;;;7.50;;
17496;SDS011;62150;43.582;1.456;2023-05-14T20:02:12;12.80;;;7.00;;
17496;SDS011;62150;43.582;1.456;2023-05-14T20:04:42;11.77;;;6.93;;
17496;SDS011;62150;43.582;1.456;2023-05-14T20:07:10;11.77;;;7.30;;
17496;SDS011;62150;43.582;1.456;2023-05-14T20:09:39;13.23;;;7.87;;
17496;SDS011;62150;43.582;1.456;2023-05-14T20:12:07;13.10;;;7.53;;
17496;SDS011;62150;43.582;1.456;2023-05-14T20:14:36;12.50;;;6.93;;
17496;SDS011;62150;43.582;1.456;2023-05-14T20:17:06;11.83;;;6.80;;
17496;SDS011;62150;43.582;1.456;2023-05-14T20:19:34;12.47;;;7.40;;
17496;SDS011;62150;43.582;1.456;2023-05-14T20:22:01;12.67;;;7.20;;
17496;SDS011;62150;43.582;1.456;2023-05-14T20:24:29;11.83;;;7.70;;